Time;durP1;ratioP1;P1;durP2;ratioP2;P2;SDS_P1;SDS_P2;PMS_P1;PMS_P2;Temp;Humidity;BMP_temperature;BMP_pressure;BME280_temperature;BME280_humidity;BME280_pressure;Samples;Min_cycle;Max_cycle;Signal;HPM_P1;HPM_P2
2022/11/08 00:02:26;;;;;;;7.38;2.30;;;;;;;11.79;100.00;100965.44;5074566;28;20047;-33
2022/11/08 00:04:51;;;;;;;7.57;2.03;;;;;;;11.76;100.00;100960.53;5074711;28;20032;-34
2022/11/08 00:15:28;;;;;;;9.90;2.10;;;;;;;11.62;100.00;100961.81;5074841;28;20059;-34
2022/11/08 00:17:55;;;;;;;6.97;2.00;;;;;;;11.69;100.00;100975.22;5074543;28;20453;-34
2022/11/08 00:20:20;;;;;;;9.20;2.28;;;;;;;11.68;100.00;100962.75;5074226;28;20064;-34
2022/11/08 00:22:46;;;;;;;5.63;1.73;;;;;;;11.67;100.00;100963.81;5074478;28;20028;-34
2022/11/08 00:25:11;;;;;;;8.10;2.07;;;;;;;11.66;100.00;100959.44;5074269;28;20115;-34
2022/11/08 00:27:36;;;;;;;7.97;1.93;;;;;;;11.58;100.00;100952.50;5074104;28;20430;-34
2022/11/08 00:30:03;;;;;;;8.50;2.20;;;;;;;11.60;100.00;100959.31;5073683;28;20036;-34
2022/11/08 00:32:28;;;;;;;;;;;;;;;11.65;100.00;100955.91;5074326;28;20024;-33
2022/11/08 00:34:53;;;;;;;8.70;1.80;;;;;;;11.59;100.00;100957.69;5074179;28;19915;-33
2022/11/08 00:37:20;;;;;;;9.17;2.57;;;;;;;11.58;100.00;100958.75;5074442;28;20039;-34
2022/11/08 00:39:46;;;;;;;4.78;1.67;;;;;;;11.58;100.00;100956.03;5074027;28;20082;-34
2022/11/08 00:42:11;;;;;;;5.18;1.70;;;;;;;11.55;100.00;100953.78;5074078;28;20024;-33
2022/11/08 00:44:37;;;;;;;8.05;2.13;;;;;;;11.54;100.00;100951.31;5073607;28;20025;-34
2022/11/08 00:47:02;;;;;;;4.80;1.80;;;;;;;11.53;100.00;100952.38;5072840;28;20491;-34
2022/11/08 00:49:28;;;;;;;10.10;2.65;;;;;;;11.44;100.00;100935.66;5073931;28;20103;-34
2022/11/08 00:51:53;;;;;;;5.68;2.00;;;;;;;11.51;100.00;100947.19;5072455;28;20028;-34
2022/11/08 00:54:20;;;;;;;5.87;1.90;;;;;;;11.47;100.00;100940.63;5073578;28;20032;-33
2022/11/08 00:56:47;;;;;;;6.15;1.88;;;;;;;11.48;100.00;100944.97;5073353;28;20040;-34
2022/11/08 00:59:14;;;;;;;8.25;2.25;;;;;;;11.46;100.00;100943.53;5073078;28;20029;-33
2022/11/08 01:01:40;;;;;;;7.25;2.10;;;;;;;11.38;100.00;100923.06;5073115;28;20094;-34
2022/11/08 01:04:07;;;;;;;8.73;1.85;;;;;;;11.39;100.00;100924.69;5073317;28;20033;-34
2022/11/08 01:06:32;;;;;;;12.38;2.25;;;;;;;11.38;100.00;100914.94;5073210;28;20028;-33
2022/11/08 01:08:57;;;;;;;6.97;2.17;;;;;;;11.43;100.00;100930.47;5073820;28;20082;-34
2022/11/08 01:11:24;;;;;;;5.17;1.83;;;;;;;11.35;100.00;100926.22;5073193;28;20059;-35
2022/11/08 01:13:51;;;;;;;6.78;2.03;;;;;;;11.38;100.00;100936.59;5056182;28;20415;-34
2022/11/08 01:16:20;;;;;;;;;;;;;;;11.40;100.00;100942.59;5072896;28;20098;-34
2022/11/08 01:18:46;;;;;;;8.73;2.17;;;;;;;11.32;100.00;100932.09;5073208;28;20284;-34
2022/11/08 01:21:12;;;;;;;4.60;1.80;;;;;;;11.23;100.00;100906.44;5073058;28;20037;-33
2022/11/08 01:23:38;;;;;;;8.63;2.60;;;;;;;11.30;100.00;100936.94;5073577;28;20474;-34
2022/11/08 01:26:07;;;;;;;6.18;1.80;;;;;;;11.27;100.00;100929.25;5073236;28;20162;-33
2022/11/08 01:28:34;;;;;;;8.52;1.88;;;;;;;11.26;100.00;100922.22;5073128;28;20024;-33
2022/11/08 01:31:05;;;;;;;9.48;2.55;;;;;;;11.24;100.00;100919.75;5072891;28;20405;-33
2022/11/08 01:33:31;;;;;;;6.20;2.08;;;;;;;11.22;100.00;100921.03;5072774;28;20105;-34
2022/11/08 01:35:56;;;;;;;5.97;2.08;;;;;;;11.17;100.00;100918.19;5073476;28;20041;-34
2022/11/08 01:38:21;;;;;;;5.63;1.80;;;;;;;11.14;100.00;100908.66;5073663;28;20036;-34
2022/11/08 01:40:47;;;;;;;7.23;2.63;;;;;;;11.06;100.00;100901.69;5072927;28;20383;-34
2022/11/08 01:43:28;;;;;;;;;;;;;;;11.14;100.00;100905.16;5073327;28;20040;-35
2022/11/08 01:46:08;;;;;;;7.22;2.00;;;;;;;11.04;100.00;100903.84;5072637;28;19919;-34
2022/11/08 01:48:36;;;;;;;7.22;2.30;;;;;;;11.02;100.00;100911.34;5073552;28;20043;-34
2022/11/08 01:51:02;;;;;;;6.35;2.22;;;;;;;11.00;100.00;100899.13;5073437;28;20048;-33
2022/11/08 01:53:28;;;;;;;5.78;2.40;;;;;;;10.87;100.00;100869.56;5073354;28;20033;-34
2022/11/08 01:55:54;;;;;;;7.32;2.67;;;;;;;10.91;100.00;100868.03;5072463;28;20029;-33
2022/11/08 01:58:24;;;;;;;6.43;2.10;;;;;;;10.96;100.00;100878.97;5072712;28;20107;-33
2022/11/08 02:00:51;;;;;;;5.15;2.00;;;;;;;10.89;100.00;100867.47;5073020;28;20454;-34
2022/11/08 02:03:18;;;;;;;6.55;2.20;;;;;;;10.95;100.00;100870.03;5073257;28;20029;-34
2022/11/08 02:05:45;;;;;;;8.85;2.10;;;;;;;10.96;100.00;100868.16;5072272;28;20025;-33
2022/11/08 02:08:18;;;;;;;6.38;2.08;;;;;;;10.95;100.00;100853.81;5072477;28;20060;-34
2022/11/08 02:10:47;;;;;;;6.50;2.20;;;;;;;10.97;100.00;100856.28;5073198;28;20052;-34
2022/11/08 02:13:17;;;;;;;7.70;2.20;;;;;;;10.97;100.00;100861.69;5073132;28;20034;-33
2022/11/08 02:15:43;;;;;;;5.07;1.63;;;;;;;10.96;100.00;100847.34;5072313;28;20461;-34
2022/11/08 02:18:09;;;;;;;8.23;2.65;;;;;;;10.99;100.00;100849.59;5073071;28;20039;-33
2022/11/08 02:20:34;;;;;;;;;;;;;;;11.02;100.00;100857.22;5073245;28;20035;-33
2022/11/08 02:23:12;;;;;;;8.40;2.20;;;;;;;11.00;100.00;100851.22;5073061;28;19909;-34
2022/11/08 02:25:37;;;;;;;10.50;2.45;;;;;;;11.00;100.00;100832.28;5072890;28;20051;-33
2022/11/08 02:28:02;;;;;;;4.53;1.60;;;;;;;11.03;100.00;100841.84;5074645;28;20028;-34
2022/11/08 02:30:32;;;;;;;6.40;1.88;;;;;;;11.03;100.00;100831.84;5076358;28;20039;-33
2022/11/08 02:32:58;;;;;;;6.68;1.88;;;;;;;11.02;100.00;100830.16;5076225;28;20119;-34
2022/11/08 02:35:25;;;;;;;3.43;1.47;;;;;;;11.04;100.00;100828.06;5076220;28;20111;-34
2022/11/08 02:37:50;;;;;;;5.47;1.77;;;;;;;11.01;100.00;100820.41;5077002;28;20254;-33
2022/11/08 02:40:16;;;;;;;9.00;2.20;;;;;;;11.05;100.00;100820.75;5076373;28;20024;-33
2022/11/08 02:42:41;;;;;;;7.80;1.90;;;;;;;11.04;100.00;100809.13;5076170;28;20488;-34
2022/11/08 02:45:08;;;;;;;5.43;1.80;;;;;;;11.05;100.00;100813.47;5075908;28;20119;-33
2022/11/08 02:47:33;;;;;;;4.80;1.48;;;;;;;11.04;100.00;100817.25;5076294;28;20286;-34
2022/11/08 02:49:58;;;;;;;4.67;1.40;;;;;;;11.04;100.00;100811.81;5076135;28;20020;-33
2022/11/08 02:52:24;;;;;;;5.03;1.80;;;;;;;11.03;100.00;100807.47;5075954;28;20290;-33
2022/11/08 02:54:49;;;;;;;4.93;1.53;;;;;;;10.98;100.00;100796.53;5075989;28;20109;-34
2022/11/08 02:57:14;;;;;;;5.07;1.50;;;;;;;10.94;100.00;100787.22;5075835;28;20028;-34
2022/11/08 02:59:39;;;;;;;5.63;1.70;;;;;;;11.03;100.00;100801.25;5075987;28;20477;-33
2022/11/08 03:02:05;;;;;;;5.10;1.70;;;;;;;11.00;100.00;100802.53;5075895;28;20024;-33
2022/11/08 03:04:30;;;;;;;6.22;1.58;;;;;;;10.94;100.00;100792.66;5075741;28;20066;-34
2022/11/08 03:06:56;;;;;;;4.47;1.75;;;;;;;10.93;100.00;100787.44;5075667;28;20461;-34
2022/11/08 03:09:21;;;;;;;4.07;1.70;;;;;;;10.88;100.00;100782.75;5076124;28;20067;-33
2022/11/08 03:11:47;;;;;;;5.72;1.55;;;;;;;10.88;100.00;100777.31;5075846;28;20055;-33
2022/11/08 03:14:12;;;;;;;8.00;1.43;;;;;;;10.77;100.00;100764.63;5075561;28;20436;-34
2022/11/08 03:16:37;;;;;;;6.23;2.00;;;;;;;10.77;100.00;100772.75;5075212;28;20493;-33
2022/11/08 03:19:03;;;;;;;8.90;3.50;;;;;;;10.72;100.00;100768.03;5076181;28;20046;-34
2022/11/08 03:21:28;;;;;;;3.97;1.70;;;;;;;10.76;100.00;100763.00;5075482;28;20081;-33
2022/11/08 03:23:53;;;;;;;8.03;2.10;;;;;;;10.70;100.00;100759.34;5074151;28;20330;-33
2022/11/08 03:26:19;;;;;;;4.87;2.10;;;;;;;10.66;100.00;100754.63;5074998;28;20322;-34
2022/11/08 03:28:44;;;;;;;5.93;2.23;;;;;;;10.65;100.00;100748.41;5075636;28;20170;-34
2022/11/08 03:31:09;;;;;;;5.13;2.07;;;;;;;10.63;100.00;100749.69;5076082;28;20028;-34
2022/11/08 03:33:35;;;;;;;5.27;1.93;;;;;;;10.62;100.00;100748.03;5075198;28;20407;-34
2022/11/08 03:36:00;;;;;;;4.50;1.87;;;;;;;10.58;100.00;100734.16;5074501;28;20028;-34
2022/11/08 03:38:25;;;;;;;6.70;2.30;;;;;;;10.57;100.00;100746.84;5074957;28;20029;-34
2022/11/08 03:40:51;;;;;;;7.22;2.17;;;;;;;10.54;100.00;100727.56;5074652;28;20058;-34
2022/11/08 03:43:16;;;;;;;6.47;2.00;;;;;;;10.46;100.00;100712.53;5075230;28;20037;-33
2022/11/08 03:45:41;;;;;;;6.03;1.90;;;;;;;10.51;100.00;100712.66;5074904;28;20029;-34
2022/11/08 03:48:07;;;;;;;8.27;2.20;;;;;;;10.50;100.00;100707.47;5074171;28;20052;-33
2022/11/08 03:50:32;;;;;;;6.37;1.97;;;;;;;10.45;100.00;100705.47;5074725;28;20263;-33
2022/11/08 03:52:58;;;;;;;5.60;2.08;;;;;;;10.48;100.00;100698.75;5074605;28;20273;-33
2022/11/08 03:55:25;;;;;;;8.60;2.90;;;;;;;10.45;100.00;100700.06;5074729;28;20387;-33
2022/11/08 03:57:51;;;;;;;5.22;1.85;;;;;;;10.46;100.00;100699.00;5074717;28;20302;-33
2022/11/08 04:00:19;;;;;;;5.40;1.73;;;;;;;10.39;100.00;100679.34;5074860;28;20056;-33
2022/11/08 04:02:45;;;;;;;5.55;1.30;;;;;;;10.47;100.00;100681.72;5075156;28;20103;-33
2022/11/08 04:05:12;;;;;;;4.18;1.30;;;;;;;10.45;100.00;100694.66;5074448;28;20120;-33
2022/11/08 04:07:37;;;;;;;7.07;1.63;;;;;;;10.47;100.00;100676.31;5074846;28;20070;-33
2022/11/08 04:10:04;;;;;;;4.43;1.30;;;;;;;10.50;100.00;100688.56;5074432;28;20024;-33
2022/11/08 04:15:17;;;;;;;7.60;1.92;;;;;;;10.50;100.00;100665.03;5074834;28;20110;-33
2022/11/08 04:23:13;;;;;;;5.78;1.50;;;;;;;10.50;100.00;100654.22;5074596;28;20074;-33
2022/11/08 04:25:39;;;;;;;4.40;2.03;;;;;;;10.47;100.00;100659.28;5074062;28;20025;-33
2022/11/08 04:28:05;;;;;;;5.53;1.88;;;;;;;10.48;100.00;100660.91;5073797;28;20540;-33
2022/11/08 04:30:30;;;;;;;7.13;1.63;;;;;;;10.41;100.00;100634.00;5074045;28;20115;-33
2022/11/08 04:32:59;;;;;;;7.80;1.83;;;;;;;10.32;100.00;100632.72;5074759;28;20115;-33
2022/11/08 04:35:24;;;;;;;5.05;1.77;;;;;;;10.44;100.00;100643.50;5074036;28;20032;-33
2022/11/08 04:37:49;;;;;;;6.17;2.00;;;;;;;10.45;100.00;100647.88;5073850;28;20050;-33
2022/11/08 04:40:15;;;;;;;5.37;1.57;;;;;;;10.43;100.00;100631.88;5073815;28;20534;-34
2022/11/08 04:42:43;;;;;;;5.97;1.60;;;;;;;10.40;100.00;100637.78;5073843;28;20024;-34
2022/11/08 04:45:09;;;;;;;6.97;1.60;;;;;;;10.41;100.00;100639.41;5073329;28;20031;-34
2022/11/08 04:47:35;;;;;;;3.15;1.23;;;;;;;10.39;100.00;100638.00;5073859;28;20044;-33
2022/11/08 04:50:00;;;;;;;4.43;1.60;;;;;;;10.40;100.00;100632.38;5072770;28;20452;-34
2022/11/08 04:52:25;;;;;;;7.47;1.80;;;;;;;10.41;100.00;100628.59;5073329;28;20607;-33
2022/11/08 04:54:51;;;;;;;4.70;1.60;;;;;;;10.31;100.00;100606.75;5072230;28;20481;-33
2022/11/08 04:57:16;;;;;;;5.10;1.60;;;;;;;10.36;100.00;100614.97;5074097;28;20063;-34
2022/11/08 04:59:41;;;;;;;5.50;1.60;;;;;;;10.37;100.00;100603.09;5073484;28;20207;-33
2022/11/08 05:02:07;;;;;;;4.13;1.50;;;;;;;10.29;100.00;100593.44;5073453;28;20247;-34
2022/11/08 05:04:32;;;;;;;4.03;1.47;;;;;;;10.25;100.00;100592.28;5073890;28;20029;-34
2022/11/08 05:06:57;;;;;;;5.10;1.60;;;;;;;10.30;100.00;100600.53;5073587;28;20031;-34
2022/11/08 05:09:22;;;;;;;4.30;1.43;;;;;;;10.30;100.00;100594.28;5073326;28;20540;-34
2022/11/08 05:11:48;;;;;;;5.13;1.47;;;;;;;10.30;100.00;100591.59;5073226;28;20032;-34
2022/11/08 05:14:13;;;;;;;6.00;1.50;;;;;;;10.24;100.00;100585.22;5073562;28;20029;-34
2022/11/08 05:16:38;;;;;;;3.53;1.20;;;;;;;10.26;100.00;100596.63;5089108;28;20025;-34
2022/11/08 05:19:04;;;;;;;5.30;1.75;;;;;;;10.16;100.00;100577.47;5073513;28;20114;-34
2022/11/08 05:24:24;;;;;;;5.22;1.40;;;;;;;10.23;100.00;100597.06;5030823;28;20037;-34
2022/11/08 05:26:49;;;;;;;4.28;1.30;;;;;;;10.15;100.00;100581.22;5030787;28;20458;-34
2022/11/08 05:29:15;;;;;;;6.13;1.50;;;;;;;10.18;100.00;100590.72;5031233;28;20398;-34
2022/11/08 05:31:41;;;;;;;5.50;1.55;;;;;;;10.19;100.00;100590.47;5030614;28;20030;-34
2022/11/08 05:34:06;;;;;;;4.63;1.42;;;;;;;10.21;100.00;100584.84;5030877;28;20045;-34
2022/11/08 05:36:32;;;;;;;3.03;1.20;;;;;;;10.18;100.00;100575.31;5030651;28;20150;-34
2022/11/08 05:38:58;;;;;;;6.35;1.60;;;;;;;10.18;100.00;100572.63;5030922;28;20029;-34
2022/11/08 05:41:24;;;;;;;5.70;1.48;;;;;;;10.16;100.00;100569.34;5014212;28;20046;-34
2022/11/08 05:43:52;;;;;;;4.63;1.38;;;;;;;10.17;100.00;100575.56;5030694;28;20029;-34
2022/11/08 05:46:19;;;;;;;6.15;2.08;;;;;;;10.18;100.00;100569.09;5030252;28;20041;-34
2022/11/08 05:48:48;;;;;;;3.95;1.10;;;;;;;10.12;100.00;100572.75;5031081;28;20045;-34
2022/11/08 05:51:15;;;;;;;4.95;1.30;;;;;;;10.05;100.00;100552.09;5030453;28;20108;-34
2022/11/08 05:53:41;;;;;;;4.50;1.30;;;;;;;10.12;100.00;100562.75;5030523;28;20132;-34
2022/11/08 05:56:07;;;;;;;5.80;1.80;;;;;;;10.06;100.00;100556.44;5014079;28;20112;-34
2022/11/08 05:58:34;;;;;;;4.07;1.40;;;;;;;10.23;100.00;100570.03;5030440;28;20065;-34
2022/11/08 06:01:13;;;;;;;4.40;1.40;;;;;;;10.26;100.00;100571.50;5055355;28;20045;-34
2022/11/08 06:03:39;;;;;;;2.17;0.95;;;;;;;10.27;100.00;100567.72;5076922;28;20074;-34
2022/11/08 06:06:07;;;;;;;6.10;1.50;;;;;;;10.18;100.00;100548.31;5076917;28;20020;-34
2022/11/08 06:08:33;;;;;;;5.68;1.40;;;;;;;10.10;100.00;100535.16;5076761;28;20024;-34
2022/11/08 06:11:10;;;;;;;5.32;1.55;;;;;;;10.23;100.00;100561.13;5077123;28;20039;-34
2022/11/08 06:13:36;;;;;;;3.90;1.50;;;;;;;10.22;100.00;100554.06;5076636;28;20068;-34
2022/11/08 06:16:04;;;;;;;7.15;2.05;;;;;;;10.22;100.00;100559.47;5076734;28;20137;-34
2022/11/08 06:18:30;;;;;;;4.50;1.60;;;;;;;10.21;100.00;100547.84;5076929;28;20033;-34
2022/11/08 06:21:00;;;;;;;4.47;1.52;;;;;;;10.21;100.00;100557.84;5076208;28;20028;-34
2022/11/08 06:23:26;;;;;;;2.35;1.10;;;;;;;10.21;100.00;100558.66;5076984;28;20029;-34
2022/11/08 06:25:51;;;;;;;3.10;1.45;;;;;;;10.22;100.00;100563.00;5074692;28;20127;-34
2022/11/08 06:28:17;;;;;;;5.60;1.40;;;;;;;10.10;100.00;100535.16;5076943;28;20099;-34
2022/11/08 06:30:42;;;;;;;3.70;1.30;;;;;;;10.24;100.00;100560.91;5076325;28;20628;-34
2022/11/08 06:33:07;;;;;;;2.87;1.33;;;;;;;10.21;100.00;100552.44;5074972;28;20029;-34
2022/11/08 06:35:33;;;;;;;3.17;1.50;;;;;;;10.19;100.00;100559.94;5076256;28;20028;-34
2022/11/08 06:38:00;;;;;;;2.77;1.27;;;;;;;10.11;100.00;100546.78;5076207;28;20024;-34
2022/11/08 06:40:26;;;;;;;3.33;1.50;;;;;;;10.17;100.00;100556.66;5076246;28;20058;-34
2022/11/08 06:42:52;;;;;;;4.32;1.48;;;;;;;10.13;100.00;100550.91;5076359;28;20062;-34
2022/11/08 06:45:17;;;;;;;3.30;1.35;;;;;;;10.12;100.00;100548.44;5076396;28;20032;-34
2022/11/08 06:47:43;;;;;;;4.70;1.73;;;;;;;10.20;99.65;100566.97;5075836;28;20112;-34
2022/11/08 06:50:08;;;;;;;5.20;1.53;;;;;;;10.21;99.80;100566.75;5075842;28;20368;-35
2022/11/08 06:52:33;;;;;;;2.95;1.45;;;;;;;10.21;100.00;100557.84;5076591;28;20449;-34
2022/11/08 06:54:59;;;;;;;4.83;1.67;;;;;;;10.21;99.24;100563.25;5076768;28;20107;-35
2022/11/08 06:57:24;;;;;;;4.87;1.67;;;;;;;10.20;99.97;100566.97;5076421;28;20067;-33
2022/11/08 06:59:49;;;;;;;4.17;1.60;;;;;;;10.18;99.52;100558.28;5075590;28;20028;-33
2022/11/08 07:02:15;;;;;;;5.03;1.90;;;;;;;10.20;99.27;100567.81;5075729;28;20025;-34
2022/11/08 07:04:40;;;;;;;4.47;1.33;;;;;;;10.21;99.15;100574.06;5074611;28;20040;-34
2022/11/08 07:07:05;;;;;;;2.47;1.57;;;;;;;10.14;99.44;100559.81;5075732;28;20025;-33
2022/11/08 07:09:31;;;;;;;5.73;1.77;;;;;;;10.21;98.92;100569.47;5074427;28;20044;-32
2022/11/08 07:11:56;;;;;;;4.07;1.50;;;;;;;10.16;99.42;100566.66;5076339;28;20052;-34
2022/11/08 07:14:21;;;;;;;5.37;1.83;;;;;;;10.11;99.25;100563.81;5075222;28;20384;-34
2022/11/08 07:16:47;;;;;;;6.57;2.27;;;;;;;10.22;98.88;100575.69;5075677;28;20067;-34
2022/11/08 07:19:12;;;;;;;6.07;1.73;;;;;;;10.22;99.37;100576.50;5074501;28;20078;-34
2022/11/08 07:21:37;;;;;;;4.20;1.60;;;;;;;10.26;98.68;100571.50;5074278;28;20032;-33
2022/11/08 07:24:03;;;;;;;5.43;1.70;;;;;;;10.25;98.22;100569.84;5074410;28;20769;-33
2022/11/08 07:26:28;;;;;;;3.57;1.47;;;;;;;10.27;98.38;100570.44;5075242;28;20032;-34
2022/11/08 07:28:53;;;;;;;5.50;1.63;;;;;;;10.28;98.52;100569.38;5075649;28;20266;-37
2022/11/08 07:31:20;;;;;;;4.97;1.50;;;;;;;10.30;98.15;100562.69;5075561;28;20062;-34
2022/11/08 07:33:45;;;;;;;6.00;2.10;;;;;;;10.26;97.95;100555.28;5091282;28;20028;-34
2022/11/08 07:36:11;;;;;;;5.00;1.67;;;;;;;10.36;97.90;100565.50;5075516;28;20433;-35
2022/11/08 07:38:36;;;;;;;4.80;2.00;;;;;;;10.36;97.94;100565.50;5091589;28;20031;-34
2022/11/08 07:41:01;;;;;;;2.63;1.47;;;;;;;10.38;97.63;100557.97;5075187;28;20036;-34
2022/11/08 07:43:28;;;;;;;5.83;1.83;;;;;;;10.39;97.85;100560.41;5075732;28;20278;-34
2022/11/08 07:45:55;;;;;;;5.32;1.77;;;;;;;10.41;97.34;100555.63;5075491;28;20373;-35
2022/11/08 07:48:21;;;;;;;5.00;2.00;;;;;;;10.43;97.71;100555.38;5075812;28;20041;-34
2022/11/08 07:50:46;;;;;;;4.22;1.92;;;;;;;10.42;98.08;100562.66;5075003;28;20044;-33
2022/11/08 07:53:12;;;;;;;3.53;1.63;;;;;;;10.44;97.26;100555.16;5075725;28;20025;-33
2022/11/08 07:55:41;;;;;;;4.37;1.67;;;;;;;10.46;96.97;100554.91;5074806;28;20035;-34
2022/11/08 07:58:08;;;;;;;4.00;1.90;;;;;;;10.44;97.53;100547.03;5075119;28;20150;-34
2022/11/08 08:00:36;;;;;;;4.72;2.10;;;;;;;10.51;97.00;100555.84;5075229;28;20032;-33
2022/11/08 08:03:03;;;;;;;7.78;3.22;;;;;;;10.54;96.79;100562.63;5074961;28;20028;-35
2022/11/08 08:05:32;;;;;;;5.25;2.15;;;;;;;10.49;97.02;100549.84;5074814;28;20032;-35
2022/11/08 08:07:58;;;;;;;5.22;1.77;;;;;;;10.58;96.26;100570.03;5074894;28;20119;-34
2022/11/08 08:10:26;;;;;;;3.47;1.50;;;;;;;10.64;96.45;100553.91;5074479;28;20025;-34
2022/11/08 08:12:51;;;;;;;4.72;2.00;;;;;;;10.67;96.07;100551.56;5073718;28;20055;-34
2022/11/08 08:15:17;;;;;;;6.60;1.95;;;;;;;10.71;96.08;100557.31;5073151;28;20075;-35
2022/11/08 08:17:42;;;;;;;5.85;1.88;;;;;;;10.74;95.04;100552.28;5073467;28;20078;-35
2022/11/08 08:20:08;;;;;;;5.67;2.27;;;;;;;10.78;95.37;100555.31;5074548;28;20082;-34
2022/11/08 08:22:33;;;;;;;4.88;2.15;;;;;;;10.82;94.64;100551.88;5075146;28;20027;-38
2022/11/08 08:24:59;;;;;;;3.13;1.80;;;;;;;10.88;94.89;100552.78;5073426;28;20028;-35
2022/11/08 08:27:24;;;;;;;5.27;1.63;;;;;;;10.91;93.53;100560.44;5074429;28;20024;-33
2022/11/08 08:29:49;;;;;;;4.07;1.70;;;;;;;10.97;93.87;100567.59;5074362;28;20475;-33
2022/11/08 08:32:14;;;;;;;4.23;1.53;;;;;;;11.01;93.71;100574.16;5074132;28;20449;-34
2022/11/08 08:34:40;;;;;;;3.70;1.43;;;;;;;11.09;93.21;100568.38;5074552;28;20082;-33
2022/11/08 08:37:05;;;;;;;5.05;1.52;;;;;;;11.09;92.16;100564.88;5074236;28;20029;-37
2022/11/08 08:39:31;;;;;;;3.30;1.40;;;;;;;11.21;91.99;100589.97;5089902;28;20060;-34
2022/11/08 08:41:56;;;;;;;2.77;1.70;;;;;;;11.30;90.96;100593.13;5073845;28;20301;-34
2022/11/08 08:44:21;;;;;;;2.20;1.30;;;;;;;11.37;90.27;100582.16;5074487;28;20422;-34
2022/11/08 08:46:46;;;;;;;4.20;1.33;;;;;;;11.44;90.57;100572.81;5073819;28;20540;-35
2022/11/08 08:49:12;;;;;;;3.13;1.23;;;;;;;11.47;89.25;100556.09;5074220;28;20142;-34
2022/11/08 08:51:37;;;;;;;2.00;1.00;;;;;;;11.64;88.69;100575.06;5074341;28;20033;-34
2022/11/08 08:54:03;;;;;;;1.80;0.87;;;;;;;11.70;88.42;100565.97;5073797;28;20031;-34
2022/11/08 08:56:28;;;;;;;2.65;1.00;;;;;;;11.75;89.05;100557.09;5073767;28;20120;-34
2022/11/08 08:58:53;;;;;;;3.00;1.13;;;;;;;11.82;86.91;100555.09;5073917;28;20028;-34
2022/11/08 09:01:19;;;;;;;1.77;1.10;;;;;;;11.87;87.22;100548.94;5073892;28;20071;-34
2022/11/08 09:03:44;;;;;;;4.80;1.27;;;;;;;11.93;87.47;100554.19;5072676;28;20406;-34
2022/11/08 09:06:09;;;;;;;3.03;1.00;;;;;;;11.96;87.30;100545.56;5074079;28;20357;-34
2022/11/08 09:08:35;;;;;;;2.37;1.20;;;;;;;12.01;87.07;100550.25;5074207;28;20254;-34
2022/11/08 09:11:00;;;;;;;3.38;1.10;;;;;;;12.07;86.01;100538.41;5073492;28;20266;-34
2022/11/08 09:13:29;;;;;;;2.33;1.10;;;;;;;12.09;85.92;100547.91;5074137;28;20446;-34
2022/11/08 09:15:55;;;;;;;3.03;1.42;;;;;;;12.13;85.46;100533.88;5072562;28;20222;-34
2022/11/08 09:18:21;;;;;;;2.38;1.20;;;;;;;12.18;85.45;100532.06;5073662;28;20134;-35
2022/11/08 09:20:46;;;;;;;2.92;1.00;;;;;;;12.28;85.53;100547.66;5073404;28;20044;-34
2022/11/08 09:23:13;;;;;;;3.65;1.25;;;;;;;12.33;84.42;100553.16;5074077;28;20075;-34
2022/11/08 09:25:39;;;;;;;3.97;1.20;;;;;;;12.36;85.05;100548.06;5073273;28;20090;-34
2022/11/08 09:28:05;;;;;;;2.90;1.00;;;;;;;12.38;84.86;100545.91;5074317;28;20032;-34
2022/11/08 09:30:31;;;;;;;3.67;1.17;;;;;;;12.39;86.19;100541.28;5071984;28;20024;-35
2022/11/08 09:32:56;;;;;;;4.05;1.13;;;;;;;12.33;85.29;100529.56;5073144;28;20024;-34
2022/11/08 09:35:22;;;;;;;4.53;1.27;;;;;;;12.42;84.33;100540.81;5073968;28;20071;-35
2022/11/08 09:37:47;;;;;;;;;;;;;;;12.47;86.17;100543.59;5072612;28;20366;-34
2022/11/08 09:40:19;;;;;;;3.63;1.37;;;;;;;12.47;85.22;100554.44;5072902;28;19916;-34
2022/11/08 09:43:19;;;;;;;3.88;1.15;;;;;;;12.53;84.67;100556.13;5073578;28;20274;-34
2022/11/08 09:45:51;;;;;;;3.08;0.90;;;;;;;12.58;85.24;100552.69;5073822;28;20036;-34
2022/11/08 09:48:26;;;;;;;3.25;1.08;;;;;;;12.68;85.49;100550.09;5073684;28;20429;-34
2022/11/08 09:50:54;;;;;;;3.63;1.33;;;;;;;12.73;82.92;100535.78;5073201;28;20037;-34
2022/11/08 09:53:43;;;;;;;3.72;1.33;;;;;;;12.75;83.74;100539.06;5073444;28;20101;-34
2022/11/08 09:56:30;;;;;;;2.20;1.02;;;;;;;12.80;83.08;100556.22;5073365;28;20330;-34
2022/11/08 09:59:00;;;;;;;2.60;1.20;;;;;;;12.82;82.45;100545.94;5073074;28;20101;-34
2022/11/08 10:01:29;;;;;;;3.03;1.35;;;;;;;12.83;83.29;100553.03;5073618;28;20021;-34
2022/11/08 10:03:58;;;;;;;3.90;0.90;;;;;;;12.86;82.70;100547.06;5073339;28;20029;-34
2022/11/08 10:06:44;;;;;;;7.65;1.40;;;;;;;12.91;82.56;100553.63;5072878;28;20036;-34
2022/11/08 10:09:23;;;;;;;6.37;2.57;;;;;;;12.95;81.44;100555.59;5073378;28;20025;-34
2022/11/08 10:12:40;;;;;;;6.28;1.35;;;;;;;13.05;82.27;100553.00;5073623;28;20035;-34
2022/11/08 10:15:24;;;;;;;3.03;1.13;;;;;;;13.10;82.00;100558.47;5011162;28;20038;-42
2022/11/08 10:18:23;;;;;;;2.85;1.13;;;;;;;13.13;82.11;100557.97;5011044;28;20037;-34
2022/11/08 10:21:07;;;;;;;3.70;1.20;;;;;;;13.31;81.83;100558.72;5011280;28;20030;-37
2022/11/08 10:23:41;;;;;;;4.20;1.45;;;;;;;13.40;81.03;100568.06;5011328;28;20030;-34
2022/11/08 10:26:34;;;;;;;2.42;1.27;;;;;;;13.50;81.45;100568.16;4994884;28;20034;-34
2022/11/08 10:29:07;;;;;;;4.28;1.50;;;;;;;13.43;79.38;100556.69;4971952;28;20049;-34
2022/11/08 10:31:35;;;;;;;2.30;1.00;;;;;;;13.52;80.42;100571.44;4972122;28;20053;-35
2022/11/08 10:34:04;;;;;;;4.40;1.20;;;;;;;13.47;79.71;100556.97;4971953;28;20043;-36
2022/11/08 10:36:48;;;;;;;2.58;1.20;;;;;;;13.54;80.76;100577.44;4972165;28;20038;-34
2022/11/08 10:39:20;;;;;;;2.35;1.17;;;;;;;13.53;79.94;100578.50;4972363;28;20540;-35
2022/11/08 10:42:03;;;;;;;2.50;1.20;;;;;;;13.39;79.82;100559.09;4972325;28;20046;-34
2022/11/08 10:44:29;;;;;;;2.40;1.02;;;;;;;13.50;80.22;100573.56;4971597;28;20026;-34
2022/11/08 10:46:54;;;;;;;5.68;1.38;;;;;;;13.51;80.21;100580.66;4971297;28;20047;-34
2022/11/08 10:49:23;;;;;;;2.00;0.90;;;;;;;13.53;78.88;100572.25;5030183;28;20060;-34
2022/11/08 10:51:53;;;;;;;3.17;1.00;;;;;;;13.55;79.58;100570.09;5053869;28;20033;-35
2022/11/08 10:54:41;;;;;;;3.25;1.17;;;;;;;13.59;80.49;100574.75;5054498;28;20036;-35
2022/11/08 10:57:08;;;;;;;2.03;1.15;;;;;;;13.57;78.87;100563.34;5054429;28;20485;-34
2022/11/08 10:59:34;;;;;;;3.45;1.10;;;;;;;13.65;78.56;100543.84;5037332;28;20067;-34
2022/11/08 11:02:00;;;;;;;2.50;1.30;;;;;;;13.72;77.59;100551.78;5053887;28;20508;-35
2022/11/08 11:04:31;;;;;;;4.60;1.23;;;;;;;13.73;77.85;100544.47;5054460;28;20533;-35
2022/11/08 11:07:01;;;;;;;2.55;1.05;;;;;;;13.73;77.92;100553.41;5074611;28;20041;-34
2022/11/08 11:09:27;;;;;;;3.95;1.33;;;;;;;13.73;77.86;100555.31;5076031;28;20048;-34
2022/11/08 11:11:57;;;;;;;4.07;1.20;;;;;;;13.72;78.76;100545.53;5076058;28;20097;-34
2022/11/08 11:14:23;;;;;;;3.60;1.08;;;;;;;13.72;76.72;100540.09;5074659;28;20123;-35
2022/11/08 11:17:16;;;;;;;2.38;1.27;;;;;;;13.69;78.15;100519.69;5075896;28;20131;-39
2022/11/08 11:19:50;;;;;;;2.72;0.88;;;;;;;13.70;78.08;100532.19;5076081;28;20541;-35
2022/11/08 11:22:31;;;;;;;3.38;1.20;;;;;;;13.62;77.80;100519.91;5075684;28;20151;-35
2022/11/08 11:25:05;;;;;;;2.15;1.00;;;;;;;13.70;77.74;100526.75;5075817;28;20029;-35
2022/11/08 11:27:35;;;;;;;2.78;1.20;;;;;;;13.73;78.35;100520.81;5075463;28;20042;-35
2022/11/08 11:30:31;;;;;;;4.60;1.33;;;;;;;13.73;79.14;100501.78;5075778;28;20361;-35
2022/11/08 11:33:04;;;;;;;7.20;2.28;;;;;;;13.79;77.93;100510.78;5076000;28;20039;-35
2022/11/08 11:35:39;;;;;;;5.00;1.20;;;;;;;13.81;78.15;100509.47;5075205;28;20361;-39
2022/11/08 11:38:12;;;;;;;2.60;1.10;;;;;;;13.84;77.85;100498.06;5075183;28;20024;-35
2022/11/08 11:40:45;;;;;;;2.75;1.05;;;;;;;13.93;78.10;100501.13;5075472;28;20387;-35
2022/11/08 11:43:32;;;;;;;4.43;1.30;;;;;;;14.01;78.07;100507.97;5075685;28;20028;-36
2022/11/08 11:46:22;;;;;;;3.28;1.13;;;;;;;13.99;77.02;100486.47;5074865;28;20020;-35